sensor_id;sensor_type;location;lat;lon;timestamp;P1;durP1;ratioP1;P2;durP2;ratioP2
76059;SDS011;64759;52.220;5.170;2022-12-18T00:00:41;106.45;;;42.15;;
76059;SDS011;64759;52.220;5.170;2022-12-18T00:03:07;99.80;;;38.92;;
76059;SDS011;64759;52.220;5.170;2022-12-18T00:05:33;103.70;;;40.92;;
76059;SDS011;64759;52.220;5.170;2022-12-18T00:07:58;100.90;;;41.58;;
76059;SDS011;64759;52.220;5.170;2022-12-18T00:10:24;100.60;;;42.08;;
76059;SDS011;64759;52.220;5.170;2022-12-18T00:12:49;105.90;;;40.33;;
76059;SDS011;64759;52.220;5.170;2022-12-18T00:15:14;89.32;;;38.13;;
76059;SDS011;64759;52.220;5.170;2022-12-18T00:17:40;95.18;;;39.72;;
76059;SDS011;64759;52.220;5.170;2022-12-18T00:20:05;113.78;;;43.88;;
76059;SDS011;64759;52.220;5.170;2022-12-18T00:22:31;115.88;;;41.50;;
76059;SDS011;64759;52.220;5.170;2022-12-18T00:24:56;94.07;;;38.42;;
76059;SDS011;64759;52.220;5.170;2022-12-18T00:27:22;102.72;;;40.33;;
76059;SDS011;64759;52.220;5.170;2022-12-18T00:29:47;98.35;;;40.65;;
76059;SDS011;64759;52.220;5.170;2022-12-18T00:32:13;107.20;;;42.28;;
76059;SDS011;64759;52.220;5.170;2022-12-18T00:34:38;100.45;;;39.85;;
76059;SDS011;64759;52.220;5.170;2022-12-18T00:37:04;101.70;;;38.75;;
76059;SDS011;64759;52.220;5.170;2022-12-18T00:39:29;97.53;;;37.17;;
76059;SDS011;64759;52.220;5.170;2022-12-18T00:41:54;106.20;;;41.38;;
76059;SDS011;64759;52.220;5.170;2022-12-18T00:44:38;99.40;;;41.53;;
76059;SDS011;64759;52.220;5.170;2022-12-18T00:47:04;101.30;;;41.28;;
76059;SDS011;64759;52.220;5.170;2022-12-18T00:49:29;95.05;;;38.53;;
76059;SDS011;64759;52.220;5.170;2022-12-18T00:51:55;93.45;;;39.00;;
76059;SDS011;64759;52.220;5.170;2022-12-18T00:54:20;93.22;;;37.50;;
76059;SDS011;64759;52.220;5.170;2022-12-18T00:56:45;97.72;;;38.35;;
76059;SDS011;64759;52.220;5.170;2022-12-18T00:59:11;96.45;;;40.72;;
76059;SDS011;64759;52.220;5.170;2022-12-18T01:01:37;90.00;;;38.08;;
76059;SDS011;64759;52.220;5.170;2022-12-18T01:04:04;96.60;;;40.13;;
76059;SDS011;64759;52.220;5.170;2022-12-18T01:06:29;101.53;;;40.22;;
76059;SDS011;64759;52.220;5.170;2022-12-18T01:08:55;87.00;;;37.70;;
76059;SDS011;64759;52.220;5.170;2022-12-18T01:11:22;97.63;;;40.20;;
76059;SDS011;64759;52.220;5.170;2022-12-18T01:13:49;97.95;;;40.13;;
76059;SDS011;64759;52.220;5.170;2022-12-18T01:16:15;85.68;;;37.80;;
76059;SDS011;64759;52.220;5.170;2022-12-18T01:18:42;85.55;;;37.78;;
76059;SDS011;64759;52.220;5.170;2022-12-18T01:21:08;86.45;;;39.60;;
76059;SDS011;64759;52.220;5.170;2022-12-18T01:23:36;91.85;;;38.00;;
76059;SDS011;64759;52.220;5.170;2022-12-18T01:26:08;88.68;;;38.20;;
76059;SDS011;64759;52.220;5.170;2022-12-18T01:28:37;89.03;;;36.83;;
76059;SDS011;64759;52.220;5.170;2022-12-18T01:31:10;81.28;;;37.60;;
76059;SDS011;64759;52.220;5.170;2022-12-18T01:33:45;86.18;;;38.15;;
76059;SDS011;64759;52.220;5.170;2022-12-18T01:36:21;87.30;;;37.47;;
76059;SDS011;64759;52.220;5.170;2022-12-18T01:38:49;81.60;;;35.20;;
76059;SDS011;64759;52.220;5.170;2022-12-18T01:41:16;75.85;;;34.67;;
76059;SDS011;64759;52.220;5.170;2022-12-18T01:46:34;89.70;;;36.55;;
76059;SDS011;64759;52.220;5.170;2022-12-18T01:49:00;86.55;;;37.53;;
76059;SDS011;64759;52.220;5.170;2022-12-18T01:51:27;81.75;;;36.92;;
76059;SDS011;64759;52.220;5.170;2022-12-18T01:53:54;86.63;;;37.15;;
76059;SDS011;64759;52.220;5.170;2022-12-18T01:56:20;91.22;;;37.65;;
76059;SDS011;64759;52.220;5.170;2022-12-18T01:58:55;86.18;;;36.55;;
76059;SDS011;64759;52.220;5.170;2022-12-18T02:01:24;101.18;;;39.10;;
76059;SDS011;64759;52.220;5.170;2022-12-18T02:03:51;89.20;;;35.17;;
76059;SDS011;64759;52.220;5.170;2022-12-18T02:06:51;94.07;;;39.40;;
76059;SDS011;64759;52.220;5.170;2022-12-18T02:09:18;83.75;;;33.72;;
76059;SDS011;64759;52.220;5.170;2022-12-18T02:14:49;89.45;;;37.15;;
76059;SDS011;64759;52.220;5.170;2022-12-18T02:17:30;91.22;;;37.78;;
76059;SDS011;64759;52.220;5.170;2022-12-18T02:20:13;90.68;;;37.15;;
76059;SDS011;64759;52.220;5.170;2022-12-18T02:28:22;91.03;;;37.25;;
76059;SDS011;64759;52.220;5.170;2022-12-18T02:30:54;82.82;;;34.78;;
76059;SDS011;64759;52.220;5.170;2022-12-18T02:33:23;82.65;;;35.65;;
76059;SDS011;64759;52.220;5.170;2022-12-18T02:35:52;80.50;;;35.65;;
76059;SDS011;64759;52.220;5.170;2022-12-18T02:38:20;89.07;;;37.53;;
76059;SDS011;64759;52.220;5.170;2022-12-18T02:40:49;77.70;;;34.10;;
76059;SDS011;64759;52.220;5.170;2022-12-18T02:43:17;89.00;;;37.08;;
76059;SDS011;64759;52.220;5.170;2022-12-18T02:46:20;85.35;;;37.42;;
76059;SDS011;64759;52.220;5.170;2022-12-18T02:48:50;92.43;;;37.92;;
76059;SDS011;64759;52.220;5.170;2022-12-18T02:51:24;98.97;;;42.30;;
76059;SDS011;64759;52.220;5.170;2022-12-18T02:54:02;88.78;;;36.38;;
76059;SDS011;64759;52.220;5.170;2022-12-18T02:56:49;81.22;;;34.28;;
76059;SDS011;64759;52.220;5.170;2022-12-18T02:59:30;90.35;;;35.72;;
76059;SDS011;64759;52.220;5.170;2022-12-18T03:02:19;105.18;;;41.55;;
76059;SDS011;64759;52.220;5.170;2022-12-18T03:05:01;101.35;;;42.08;;
76059;SDS011;64759;52.220;5.170;2022-12-18T03:08:19;88.15;;;37.03;;
76059;SDS011;64759;52.220;5.170;2022-12-18T03:13:05;94.20;;;37.53;;
76059;SDS011;64759;52.220;5.170;2022-12-18T03:15:42;81.65;;;33.38;;
76059;SDS011;64759;52.220;5.170;2022-12-18T03:18:13;81.88;;;35.15;;
76059;SDS011;64759;52.220;5.170;2022-12-18T03:20:44;95.18;;;39.38;;
76059;SDS011;64759;52.220;5.170;2022-12-18T03:23:18;83.93;;;35.90;;
76059;SDS011;64759;52.220;5.170;2022-12-18T03:25:58;90.57;;;35.30;;
76059;SDS011;64759;52.220;5.170;2022-12-18T03:28:26;85.28;;;35.92;;
76059;SDS011;64759;52.220;5.170;2022-12-18T03:31:01;77.50;;;33.90;;
76059;SDS011;64759;52.220;5.170;2022-12-18T03:33:31;79.15;;;32.83;;
76059;SDS011;64759;52.220;5.170;2022-12-18T03:36:04;75.07;;;31.15;;
76059;SDS011;64759;52.220;5.170;2022-12-18T03:38:31;71.72;;;31.63;;
76059;SDS011;64759;52.220;5.170;2022-12-18T03:41:31;76.68;;;34.03;;
76059;SDS011;64759;52.220;5.170;2022-12-18T03:44:18;72.57;;;31.33;;
76059;SDS011;64759;52.220;5.170;2022-12-18T03:46:54;83.05;;;33.00;;
76059;SDS011;64759;52.220;5.170;2022-12-18T03:49:45;80.70;;;33.40;;
76059;SDS011;64759;52.220;5.170;2022-12-18T03:52:36;78.07;;;33.45;;
76059;SDS011;64759;52.220;5.170;2022-12-18T03:55:06;75.28;;;32.60;;
76059;SDS011;64759;52.220;5.170;2022-12-18T03:57:33;73.03;;;33.15;;
76059;SDS011;64759;52.220;5.170;2022-12-18T04:00:05;57.45;;;24.95;;
76059;SDS011;64759;52.220;5.170;2022-12-18T04:02:55;75.05;;;32.88;;
76059;SDS011;64759;52.220;5.170;2022-12-18T04:05:30;75.38;;;33.85;;
76059;SDS011;64759;52.220;5.170;2022-12-18T04:08:00;76.13;;;33.63;;
76059;SDS011;64759;52.220;5.170;2022-12-18T04:10:26;70.80;;;32.65;;
76059;SDS011;64759;52.220;5.170;2022-12-18T04:12:55;67.35;;;29.80;;
76059;SDS011;64759;52.220;5.170;2022-12-18T04:15:23;72.45;;;30.30;;
76059;SDS011;64759;52.220;5.170;2022-12-18T04:17:49;67.50;;;30.50;;
76059;SDS011;64759;52.220;5.170;2022-12-18T04:20:18;53.27;;;26.60;;
76059;SDS011;64759;52.220;5.170;2022-12-18T04:22:44;71.75;;;30.67;;
76059;SDS011;64759;52.220;5.170;2022-12-18T04:25:11;65.20;;;30.40;;
76059;SDS011;64759;52.220;5.170;2022-12-18T04:27:40;67.80;;;29.92;;
76059;SDS011;64759;52.220;5.170;2022-12-18T04:30:07;69.82;;;30.50;;
76059;SDS011;64759;52.220;5.170;2022-12-18T04:32:34;66.68;;;31.35;;
76059;SDS011;64759;52.220;5.170;2022-12-18T04:35:00;68.63;;;31.85;;
76059;SDS011;64759;52.220;5.170;2022-12-18T04:37:26;69.88;;;31.60;;
76059;SDS011;64759;52.220;5.170;2022-12-18T04:39:51;67.43;;;29.63;;
76059;SDS011;64759;52.220;5.170;2022-12-18T04:42:24;64.88;;;28.02;;
76059;SDS011;64759;52.220;5.170;2022-12-18T04:44:49;65.88;;;28.73;;
76059;SDS011;64759;52.220;5.170;2022-12-18T04:47:15;62.60;;;28.88;;
76059;SDS011;64759;52.220;5.170;2022-12-18T04:49:40;59.20;;;28.88;;
76059;SDS011;64759;52.220;5.170;2022-12-18T04:52:05;57.65;;;27.60;;
76059;SDS011;64759;52.220;5.170;2022-12-18T04:54:31;62.42;;;27.25;;
76059;SDS011;64759;52.220;5.170;2022-12-18T04:56:56;59.45;;;28.17;;
76059;SDS011;64759;52.220;5.170;2022-12-18T04:59:22;58.78;;;26.33;;
76059;SDS011;64759;52.220;5.170;2022-12-18T05:01:47;56.97;;;27.58;;
76059;SDS011;64759;52.220;5.170;2022-12-18T05:04:12;60.63;;;28.27;;
76059;SDS011;64759;52.220;5.170;2022-12-18T05:06:38;56.22;;;27.27;;
76059;SDS011;64759;52.220;5.170;2022-12-18T05:09:03;45.75;;;21.10;;
76059;SDS011;64759;52.220;5.170;2022-12-18T05:11:29;51.80;;;25.42;;
76059;SDS011;64759;52.220;5.170;2022-12-18T05:13:54;55.55;;;24.10;;
76059;SDS011;64759;52.220;5.170;2022-12-18T05:16:19;56.47;;;25.77;;
76059;SDS011;64759;52.220;5.170;2022-12-18T05:18:45;53.80;;;24.20;;
76059;SDS011;64759;52.220;5.170;2022-12-18T05:21:10;55.53;;;26.20;;
76059;SDS011;64759;52.220;5.170;2022-12-18T05:23:36;50.85;;;24.33;;
76059;SDS011;64759;52.220;5.170;2022-12-18T05:26:02;55.95;;;26.55;;
76059;SDS011;64759;52.220;5.170;2022-12-18T05:28:29;47.85;;;23.48;;
76059;SDS011;64759;52.220;5.170;2022-12-18T05:30:57;56.25;;;24.65;;
76059;SDS011;64759;52.220;5.170;2022-12-18T05:33:25;45.58;;;20.92;;
76059;SDS011;64759;52.220;5.170;2022-12-18T05:35:53;43.72;;;20.92;;
76059;SDS011;64759;52.220;5.170;2022-12-18T05:38:20;46.90;;;23.02;;
76059;SDS011;64759;52.220;5.170;2022-12-18T05:40:47;50.03;;;23.13;;
76059;SDS011;64759;52.220;5.170;2022-12-18T05:43:14;46.28;;;22.73;;
76059;SDS011;64759;52.220;5.170;2022-12-18T05:45:39;43.03;;;20.15;;
76059;SDS011;64759;52.220;5.170;2022-12-18T05:48:06;51.78;;;22.52;;
76059;SDS011;64759;52.220;5.170;2022-12-18T05:50:36;40.92;;;20.50;;
76059;SDS011;64759;52.220;5.170;2022-12-18T05:53:02;39.95;;;19.45;;
76059;SDS011;64759;52.220;5.170;2022-12-18T05:55:28;38.53;;;19.20;;
76059;SDS011;64759;52.220;5.170;2022-12-18T05:57:53;44.90;;;21.77;;
76059;SDS011;64759;52.220;5.170;2022-12-18T06:00:19;44.35;;;20.13;;
76059;SDS011;64759;52.220;5.170;2022-12-18T06:02:47;42.47;;;19.73;;
76059;SDS011;64759;52.220;5.170;2022-12-18T06:05:13;43.65;;;20.02;;
76059;SDS011;64759;52.220;5.170;2022-12-18T06:07:39;44.70;;;20.17;;
76059;SDS011;64759;52.220;5.170;2022-12-18T06:10:04;49.58;;;21.52;;
76059;SDS011;64759;52.220;5.170;2022-12-18T06:12:30;41.78;;;20.23;;
76059;SDS011;64759;52.220;5.170;2022-12-18T06:14:56;44.40;;;20.30;;
76059;SDS011;64759;52.220;5.170;2022-12-18T06:17:21;40.72;;;20.50;;
76059;SDS011;64759;52.220;5.170;2022-12-18T06:19:47;42.22;;;19.15;;
76059;SDS011;64759;52.220;5.170;2022-12-18T06:22:12;36.45;;;17.80;;
76059;SDS011;64759;52.220;5.170;2022-12-18T06:24:38;41.25;;;19.13;;
76059;SDS011;64759;52.220;5.170;2022-12-18T06:27:03;31.23;;;16.40;;
76059;SDS011;64759;52.220;5.170;2022-12-18T06:29:29;38.47;;;17.88;;
76059;SDS011;64759;52.220;5.170;2022-12-18T06:31:54;35.42;;;16.70;;
76059;SDS011;64759;52.220;5.170;2022-12-18T06:34:19;36.42;;;17.95;;
76059;SDS011;64759;52.220;5.170;2022-12-18T06:36:45;37.58;;;17.88;;
76059;SDS011;64759;52.220;5.170;2022-12-18T06:39:10;29.30;;;15.52;;
76059;SDS011;64759;52.220;5.170;2022-12-18T06:41:35;30.40;;;15.90;;
76059;SDS011;64759;52.220;5.170;2022-12-18T06:44:01;38.33;;;17.65;;
76059;SDS011;64759;52.220;5.170;2022-12-18T06:46:26;32.50;;;15.68;;
76059;SDS011;64759;52.220;5.170;2022-12-18T06:48:52;37.47;;;17.52;;
76059;SDS011;64759;52.220;5.170;2022-12-18T06:51:18;33.40;;;16.02;;
76059;SDS011;64759;52.220;5.170;2022-12-18T06:53:45;30.60;;;16.33;;
76059;SDS011;64759;52.220;5.170;2022-12-18T06:56:10;30.45;;;16.42;;
76059;SDS011;64759;52.220;5.170;2022-12-18T06:58:36;39.25;;;18.30;;
76059;SDS011;64759;52.220;5.170;2022-12-18T07:01:02;31.20;;;15.80;;
76059;SDS011;64759;52.220;5.170;2022-12-18T07:03:29;33.90;;;16.02;;
76059;SDS011;64759;52.220;5.170;2022-12-18T07:05:55;32.88;;;15.60;;
76059;SDS011;64759;52.220;5.170;2022-12-18T07:08:24;33.58;;;16.35;;
76059;SDS011;64759;52.220;5.170;2022-12-18T07:10:49;30.83;;;15.18;;
76059;SDS011;64759;52.220;5.170;2022-12-18T07:13:15;31.27;;;17.17;;
76059;SDS011;64759;52.220;5.170;2022-12-18T07:15:41;31.42;;;16.13;;
76059;SDS011;64759;52.220;5.170;2022-12-18T07:18:07;29.48;;;14.75;;
76059;SDS011;64759;52.220;5.170;2022-12-18T07:20:32;27.58;;;14.43;;
76059;SDS011;64759;52.220;5.170;2022-12-18T07:22:58;25.42;;;14.30;;
76059;SDS011;64759;52.220;5.170;2022-12-18T07:25:23;29.90;;;14.63;;
76059;SDS011;64759;52.220;5.170;2022-12-18T07:27:48;30.58;;;16.17;;
76059;SDS011;64759;52.220;5.170;2022-12-18T07:30:14;33.85;;;16.02;;
76059;SDS011;64759;52.220;5.170;2022-12-18T07:32:39;32.00;;;15.25;;
76059;SDS011;64759;52.220;5.170;2022-12-18T07:35:04;30.50;;;15.32;;
76059;SDS011;64759;52.220;5.170;2022-12-18T07:37:30;26.45;;;14.13;;
76059;SDS011;64759;52.220;5.170;2022-12-18T07:39:55;30.13;;;13.15;;
76059;SDS011;64759;52.220;5.170;2022-12-18T07:42:23;26.90;;;13.85;;
76059;SDS011;64759;52.220;5.170;2022-12-18T07:44:58;34.80;;;14.98;;
76059;SDS011;64759;52.220;5.170;2022-12-18T07:47:24;33.72;;;16.00;;
76059;SDS011;64759;52.220;5.170;2022-12-18T07:49:50;30.08;;;13.82;;
76059;SDS011;64759;52.220;5.170;2022-12-18T07:52:15;27.77;;;14.73;;
76059;SDS011;64759;52.220;5.170;2022-12-18T07:54:41;25.77;;;14.95;;
76059;SDS011;64759;52.220;5.170;2022-12-18T07:57:06;28.70;;;15.65;;
76059;SDS011;64759;52.220;5.170;2022-12-18T07:59:32;30.48;;;15.65;;
76059;SDS011;64759;52.220;5.170;2022-12-18T08:01:58;26.50;;;13.73;;
76059;SDS011;64759;52.220;5.170;2022-12-18T08:04:24;26.42;;;14.65;;
76059;SDS011;64759;52.220;5.170;2022-12-18T08:06:49;29.38;;;14.85;;
76059;SDS011;64759;52.220;5.170;2022-12-18T08:09:15;26.60;;;14.63;;
76059;SDS011;64759;52.220;5.170;2022-12-18T08:11:41;30.73;;;15.23;;
76059;SDS011;64759;52.220;5.170;2022-12-18T08:14:06;24.27;;;14.15;;
76059;SDS011;64759;52.220;5.170;2022-12-18T08:16:32;25.10;;;13.75;;
76059;SDS011;64759;52.220;5.170;2022-12-18T08:18:57;32.30;;;15.50;;
76059;SDS011;64759;52.220;5.170;2022-12-18T08:21:24;26.25;;;14.00;;
76059;SDS011;64759;52.220;5.170;2022-12-18T08:23:51;28.23;;;15.35;;
76059;SDS011;64759;52.220;5.170;2022-12-18T08:26:18;25.77;;;13.95;;
76059;SDS011;64759;52.220;5.170;2022-12-18T08:28:44;26.00;;;13.88;;
76059;SDS011;64759;52.220;5.170;2022-12-18T08:31:09;24.13;;;13.25;;
76059;SDS011;64759;52.220;5.170;2022-12-18T08:33:35;30.23;;;13.85;;
76059;SDS011;64759;52.220;5.170;2022-12-18T08:36:03;32.60;;;16.92;;
76059;SDS011;64759;52.220;5.170;2022-12-18T08:38:30;38.05;;;18.05;;
76059;SDS011;64759;52.220;5.170;2022-12-18T08:41:00;37.28;;;18.75;;
76059;SDS011;64759;52.220;5.170;2022-12-18T08:43:27;59.17;;;28.02;;
76059;SDS011;64759;52.220;5.170;2022-12-18T08:46:11;45.72;;;22.27;;
76059;SDS011;64759;52.220;5.170;2022-12-18T08:48:37;25.25;;;14.70;;
76059;SDS011;64759;52.220;5.170;2022-12-18T08:51:02;27.63;;;14.57;;
76059;SDS011;64759;52.220;5.170;2022-12-18T08:53:28;28.23;;;14.45;;
76059;SDS011;64759;52.220;5.170;2022-12-18T08:55:53;27.98;;;13.98;;
76059;SDS011;64759;52.220;5.170;2022-12-18T08:58:21;21.20;;;12.40;;
76059;SDS011;64759;52.220;5.170;2022-12-18T09:00:46;26.45;;;14.00;;
76059;SDS011;64759;52.220;5.170;2022-12-18T09:03:15;24.60;;;13.05;;
76059;SDS011;64759;52.220;5.170;2022-12-18T09:05:41;23.83;;;13.35;;
76059;SDS011;64759;52.220;5.170;2022-12-18T09:08:07;27.30;;;14.00;;
76059;SDS011;64759;52.220;5.170;2022-12-18T09:10:33;27.05;;;13.77;;
76059;SDS011;64759;52.220;5.170;2022-12-18T09:12:58;29.40;;;13.55;;
76059;SDS011;64759;52.220;5.170;2022-12-18T09:15:24;27.27;;;12.63;;
76059;SDS011;64759;52.220;5.170;2022-12-18T09:17:49;25.83;;;14.02;;
76059;SDS011;64759;52.220;5.170;2022-12-18T09:20:15;23.02;;;12.73;;
76059;SDS011;64759;52.220;5.170;2022-12-18T09:22:41;23.13;;;13.73;;
76059;SDS011;64759;52.220;5.170;2022-12-18T09:25:07;23.35;;;12.80;;
76059;SDS011;64759;52.220;5.170;2022-12-18T09:27:33;25.25;;;13.65;;
76059;SDS011;64759;52.220;5.170;2022-12-18T09:29:59;27.90;;;14.32;;
76059;SDS011;64759;52.220;5.170;2022-12-18T09:32:24;24.45;;;13.43;;
76059;SDS011;64759;52.220;5.170;2022-12-18T09:34:49;25.13;;;13.73;;
76059;SDS011;64759;52.220;5.170;2022-12-18T09:37:15;23.70;;;13.27;;
76059;SDS011;64759;52.220;5.170;2022-12-18T09:39:40;27.08;;;14.50;;
76059;SDS011;64759;52.220;5.170;2022-12-18T09:42:05;33.00;;;16.35;;
76059;SDS011;64759;52.220;5.170;2022-12-18T09:44:40;26.23;;;14.82;;
76059;SDS011;64759;52.220;5.170;2022-12-18T09:47:15;26.83;;;14.55;;
76059;SDS011;64759;52.220;5.170;2022-12-18T09:49:46;27.30;;;13.93;;
76059;SDS011;64759;52.220;5.170;2022-12-18T09:52:19;23.30;;;14.48;;
76059;SDS011;64759;52.220;5.170;2022-12-18T09:54:53;27.10;;;15.50;;
76059;SDS011;64759;52.220;5.170;2022-12-18T09:57:25;27.27;;;15.10;;
76059;SDS011;64759;52.220;5.170;2022-12-18T09:59:58;24.10;;;13.65;;
76059;SDS011;64759;52.220;5.170;2022-12-18T10:02:36;25.65;;;15.70;;
76059;SDS011;64759;52.220;5.170;2022-12-18T10:05:06;23.10;;;13.75;;
76059;SDS011;64759;52.220;5.170;2022-12-18T10:07:53;27.25;;;14.93;;
76059;SDS011;64759;52.220;5.170;2022-12-18T10:10:43;22.20;;;13.35;;
76059;SDS011;64759;52.220;5.170;2022-12-18T10:13:15;22.52;;;13.57;;
76059;SDS011;64759;52.220;5.170;2022-12-18T10:16:05;22.63;;;13.18;;
76059;SDS011;64759;52.220;5.170;2022-12-18T10:19:16;27.23;;;14.07;;
76059;SDS011;64759;52.220;5.170;2022-12-18T10:22:02;25.63;;;15.00;;
76059;SDS011;64759;52.220;5.170;2022-12-18T10:24:34;28.85;;;15.13;;
76059;SDS011;64759;52.220;5.170;2022-12-18T10:27:15;21.98;;;12.85;;
76059;SDS011;64759;52.220;5.170;2022-12-18T10:29:43;23.85;;;14.02;;
76059;SDS011;64759;52.220;5.170;2022-12-18T10:32:17;28.05;;;15.02;;
76059;SDS011;64759;52.220;5.170;2022-12-18T10:34:45;22.00;;;13.40;;
76059;SDS011;64759;52.220;5.170;2022-12-18T10:37:14;23.23;;;13.50;;
76059;SDS011;64759;52.220;5.170;2022-12-18T10:39:42;24.50;;;14.85;;
76059;SDS011;64759;52.220;5.170;2022-12-18T10:42:10;25.42;;;14.05;;
76059;SDS011;64759;52.220;5.170;2022-12-18T10:44:40;23.45;;;14.02;;
76059;SDS011;64759;52.220;5.170;2022-12-18T10:47:06;27.02;;;13.73;;
76059;SDS011;64759;52.220;5.170;2022-12-18T10:49:50;22.73;;;13.32;;
76059;SDS011;64759;52.220;5.170;2022-12-18T10:52:24;50.65;;;22.67;;
76059;SDS011;64759;52.220;5.170;2022-12-18T10:54:53;44.22;;;21.02;;
76059;SDS011;64759;52.220;5.170;2022-12-18T10:59:52;25.23;;;14.65;;
76059;SDS011;64759;52.220;5.170;2022-12-18T11:02:27;28.27;;;14.50;;
76059;SDS011;64759;52.220;5.170;2022-12-18T11:07:25;29.30;;;15.43;;
76059;SDS011;64759;52.220;5.170;2022-12-18T11:10:15;25.05;;;13.43;;
76059;SDS011;64759;52.220;5.170;2022-12-18T11:12:41;24.40;;;14.63;;
76059;SDS011;64759;52.220;5.170;2022-12-18T11:15:13;24.45;;;14.25;;
76059;SDS011;64759;52.220;5.170;2022-12-18T11:17:41;25.92;;;13.63;;
76059;SDS011;64759;52.220;5.170;2022-12-18T11:20:19;21.85;;;11.85;;
76059;SDS011;64759;52.220;5.170;2022-12-18T11:22:58;28.13;;;14.40;;
76059;SDS011;64759;52.220;5.170;2022-12-18T11:25:25;24.20;;;13.80;;
76059;SDS011;64759;52.220;5.170;2022-12-18T11:27:55;20.20;;;12.63;;
76059;SDS011;64759;52.220;5.170;2022-12-18T11:33:01;21.85;;;13.30;;
76059;SDS011;64759;52.220;5.170;2022-12-18T11:35:34;22.95;;;13.30;;
76059;SDS011;64759;52.220;5.170;2022-12-18T11:40:44;23.55;;;13.45;;
76059;SDS011;64759;52.220;5.170;2022-12-18T11:43:17;23.95;;;13.90;;
76059;SDS011;64759;52.220;5.170;2022-12-18T11:45:54;26.30;;;13.32;;
76059;SDS011;64759;52.220;5.170;2022-12-18T11:48:57;26.73;;;13.80;;
76059;SDS011;64759;52.220;5.170;2022-12-18T11:51:33;24.35;;;13.82;;
76059;SDS011;64759;52.220;5.170;2022-12-18T11:54:07;22.60;;;12.82;;
76059;SDS011;64759;52.220;5.170;2022-12-18T11:56:46;26.77;;;14.15;;
76059;SDS011;64759;52.220;5.170;2022-12-18T12:02:24;22.92;;;14.05;;
76059;SDS011;64759;52.220;5.170;2022-12-18T12:07:49;21.38;;;11.68;;
76059;SDS011;64759;52.220;5.170;2022-12-18T12:10:34;22.30;;;12.75;;
76059;SDS011;64759;52.220;5.170;2022-12-18T12:16:24;24.17;;;14.23;;
76059;SDS011;64759;52.220;5.170;2022-12-18T12:21:33;24.30;;;14.00;;
76059;SDS011;64759;52.220;5.170;2022-12-18T12:27:02;25.77;;;14.00;;
76059;SDS011;64759;52.220;5.170;2022-12-18T12:38:13;26.02;;;14.68;;
76059;SDS011;64759;52.220;5.170;2022-12-18T12:40:51;22.50;;;13.98;;
76059;SDS011;64759;52.220;5.170;2022-12-18T12:43:31;24.25;;;13.45;;
76059;SDS011;64759;52.220;5.170;2022-12-18T12:46:03;21.05;;;12.57;;
76059;SDS011;64759;52.220;5.170;2022-12-18T12:48:41;25.70;;;14.35;;
76059;SDS011;64759;52.220;5.170;2022-12-18T12:53:46;22.88;;;13.02;;
76059;SDS011;64759;52.220;5.170;2022-12-18T12:56:14;25.20;;;13.75;;
76059;SDS011;64759;52.220;5.170;2022-12-18T13:01:36;26.75;;;13.98;;
76059;SDS011;64759;52.220;5.170;2022-12-18T13:04:17;21.40;;;13.15;;
76059;SDS011;64759;52.220;5.170;2022-12-18T13:07:09;27.60;;;13.65;;
76059;SDS011;64759;52.220;5.170;2022-12-18T13:13:07;23.35;;;12.90;;
76059;SDS011;64759;52.220;5.170;2022-12-18T13:15:41;28.33;;;15.13;;
76059;SDS011;64759;52.220;5.170;2022-12-18T13:21:20;23.23;;;14.25;;
76059;SDS011;64759;52.220;5.170;2022-12-18T13:23:25;22.60;;;13.68;;
76059;SDS011;64759;52.220;5.170;2022-12-18T13:25:54;23.85;;;13.52;;
76059;SDS011;64759;52.220;5.170;2022-12-18T13:30:59;22.73;;;13.23;;
76059;SDS011;64759;52.220;5.170;2022-12-18T13:38:38;28.60;;;14.10;;
76059;SDS011;64759;52.220;5.170;2022-12-18T13:41:21;24.95;;;13.25;;
76059;SDS011;64759;52.220;5.170;2022-12-18T13:43:54;24.40;;;13.82;;
76059;SDS011;64759;52.220;5.170;2022-12-18T13:46:28;28.48;;;14.75;;
76059;SDS011;64759;52.220;5.170;2022-12-18T13:49:02;23.92;;;13.40;;
76059;SDS011;64759;52.220;5.170;2022-12-18T13:51:32;25.38;;;13.40;;
76059;SDS011;64759;52.220;5.170;2022-12-18T13:53:59;24.33;;;14.40;;
76059;SDS011;64759;52.220;5.170;2022-12-18T13:56:29;25.92;;;14.63;;
76059;SDS011;64759;52.220;5.170;2022-12-18T13:59:06;22.73;;;13.50;;
76059;SDS011;64759;52.220;5.170;2022-12-18T14:01:53;24.05;;;13.95;;
76059;SDS011;64759;52.220;5.170;2022-12-18T14:07:03;28.30;;;14.15;;
76059;SDS011;64759;52.220;5.170;2022-12-18T14:09:34;28.83;;;14.88;;
76059;SDS011;64759;52.220;5.170;2022-12-18T14:12:01;28.98;;;14.60;;
76059;SDS011;64759;52.220;5.170;2022-12-18T14:14:47;22.45;;;13.32;;
76059;SDS011;64759;52.220;5.170;2022-12-18T14:17:16;24.95;;;14.80;;
76059;SDS011;64759;52.220;5.170;2022-12-18T14:19:45;27.02;;;15.57;;
76059;SDS011;64759;52.220;5.170;2022-12-18T14:22:23;26.55;;;15.65;;
76059;SDS011;64759;52.220;5.170;2022-12-18T14:25:12;27.35;;;16.77;;
76059;SDS011;64759;52.220;5.170;2022-12-18T14:27:52;26.48;;;14.57;;
76059;SDS011;64759;52.220;5.170;2022-12-18T14:30:28;30.20;;;14.73;;
76059;SDS011;64759;52.220;5.170;2022-12-18T14:35:40;27.40;;;15.40;;
76059;SDS011;64759;52.220;5.170;2022-12-18T14:41:11;31.13;;;15.90;;
76059;SDS011;64759;52.220;5.170;2022-12-18T14:43:39;27.05;;;15.70;;
76059;SDS011;64759;52.220;5.170;2022-12-18T14:48:51;34.92;;;19.42;;
76059;SDS011;64759;52.220;5.170;2022-12-18T14:51:21;31.20;;;17.92;;
76059;SDS011;64759;52.220;5.170;2022-12-18T14:53:53;30.73;;;16.65;;
76059;SDS011;64759;52.220;5.170;2022-12-18T14:58:59;21.58;;;13.52;;
76059;SDS011;64759;52.220;5.170;2022-12-18T15:01:29;25.55;;;14.60;;
76059;SDS011;64759;52.220;5.170;2022-12-18T15:03:56;22.10;;;13.93;;
76059;SDS011;64759;52.220;5.170;2022-12-18T15:06:27;22.55;;;13.43;;
76059;SDS011;64759;52.220;5.170;2022-12-18T15:11:47;31.85;;;15.50;;
76059;SDS011;64759;52.220;5.170;2022-12-18T15:17:15;24.83;;;14.68;;
76059;SDS011;64759;52.220;5.170;2022-12-18T15:19:47;33.00;;;16.70;;
76059;SDS011;64759;52.220;5.170;2022-12-18T15:22:25;29.92;;;16.10;;
76059;SDS011;64759;52.220;5.170;2022-12-18T15:24:52;28.85;;;15.40;;
76059;SDS011;64759;52.220;5.170;2022-12-18T15:30:00;28.45;;;17.35;;
76059;SDS011;64759;52.220;5.170;2022-12-18T15:32:25;33.13;;;16.77;;
76059;SDS011;64759;52.220;5.170;2022-12-18T15:34:51;30.17;;;16.55;;
76059;SDS011;64759;52.220;5.170;2022-12-18T15:37:47;32.92;;;16.55;;
76059;SDS011;64759;52.220;5.170;2022-12-18T15:40:16;27.00;;;14.63;;
76059;SDS011;64759;52.220;5.170;2022-12-18T15:42:46;27.50;;;16.58;;
76059;SDS011;64759;52.220;5.170;2022-12-18T15:45:31;35.30;;;20.52;;
76059;SDS011;64759;52.220;5.170;2022-12-18T15:47:57;25.75;;;14.57;;
76059;SDS011;64759;52.220;5.170;2022-12-18T15:50:23;32.05;;;20.40;;
76059;SDS011;64759;52.220;5.170;2022-12-18T15:52:49;32.42;;;18.00;;
76059;SDS011;64759;52.220;5.170;2022-12-18T15:55:20;54.30;;;32.00;;
76059;SDS011;64759;52.220;5.170;2022-12-18T15:58:06;28.92;;;17.50;;
76059;SDS011;64759;52.220;5.170;2022-12-18T16:00:33;31.48;;;19.23;;
76059;SDS011;64759;52.220;5.170;2022-12-18T16:02:59;27.92;;;15.80;;
76059;SDS011;64759;52.220;5.170;2022-12-18T16:05:25;29.70;;;17.65;;
76059;SDS011;64759;52.220;5.170;2022-12-18T16:07:52;28.90;;;16.25;;